AVQ Airport (Marana Rgnl) Information

FAA: AVQ - ICAO: KAVQ

AVQ Airport Location

State Arizona
County Pima
City Marana
AVQ Airport is 15 miles northwest of Marana, AZ.
Latitude 32-24-34.4000N
Longitude 111-13-06.2000W
Elevation 2,031ft

KAVQ Airport METARs

METAR KAVQ 301855Z AUTO 00000KT 10SM CLR 24/M03 A3006 RMK AO2 T02361031
Altimeter 30.06"
Temperature 23.6°C (74.5°F)
Wind 0° at 0KT
Clouds Skies are clear.
Visibility 10.0mi
Time observed: 2021-11-30T18:55:00Z

AVQ Airport Details

Status Operational
Activation N/A
Ownership Public
Usage Public
Chart PHOENIX
ATC on-site No
Beacon schedule sunset-sunrise
Beacon color clear green

AVQ Airport Contacts

Owner TOWN OF MARANA
Owner address 11555 W. CIVIC CENTER DRIVE, MARANA, AZ 85653
Owner phone (520) 382-2000
Manager LUKE ABELL
Manager address 10001 S. WILMOT ROAD, TUCSON, AZ 85706
Manager phone 520-664-0600

AVQ Airport (Marana Rgnl) Radio Frequencies

AVQ (Airport) Radio Frequencies

UNICOM 123
Common traffic advisory frequency (CTAF) 123